sensor_id;sensor_type;location;lat;lon;timestamp;P1;durP1;ratioP1;P2;durP2;ratioP2
40150;SDS011;25866;52.420;10.640;2022-10-16T00:01:25;3.50;;;0.68;;
40150;SDS011;25866;52.420;10.640;2022-10-16T00:03:53;3.25;;;0.60;;
40150;SDS011;25866;52.420;10.640;2022-10-16T00:06:20;1.20;;;0.60;;
40150;SDS011;25866;52.420;10.640;2022-10-16T00:08:46;3.53;;;0.60;;
40150;SDS011;25866;52.420;10.640;2022-10-16T00:11:32;1.08;;;0.60;;
40150;SDS011;25866;52.420;10.640;2022-10-16T00:14:02;3.00;;;0.80;;
40150;SDS011;25866;52.420;10.640;2022-10-16T00:16:30;1.50;;;0.60;;
40150;SDS011;25866;52.420;10.640;2022-10-16T00:18:56;2.00;;;0.60;;
40150;SDS011;25866;52.420;10.640;2022-10-16T00:21:23;1.00;;;0.73;;
40150;SDS011;25866;52.420;10.640;2022-10-16T00:23:55;2.72;;;0.70;;
40150;SDS011;25866;52.420;10.640;2022-10-16T00:26:24;1.08;;;0.70;;
40150;SDS011;25866;52.420;10.640;2022-10-16T00:28:51;1.20;;;0.73;;
40150;SDS011;25866;52.420;10.640;2022-10-16T00:31:18;1.17;;;0.80;;
40150;SDS011;25866;52.420;10.640;2022-10-16T00:33:46;1.52;;;0.85;;
40150;SDS011;25866;52.420;10.640;2022-10-16T00:36:13;2.00;;;0.80;;
40150;SDS011;25866;52.420;10.640;2022-10-16T00:38:40;1.88;;;0.80;;
40150;SDS011;25866;52.420;10.640;2022-10-16T00:41:07;2.00;;;0.90;;
40150;SDS011;25866;52.420;10.640;2022-10-16T00:43:39;2.50;;;0.90;;
40150;SDS011;25866;52.420;10.640;2022-10-16T00:46:08;2.03;;;1.00;;
40150;SDS011;25866;52.420;10.640;2022-10-16T00:48:48;3.33;;;0.88;;
40150;SDS011;25866;52.420;10.640;2022-10-16T00:51:36;1.70;;;1.00;;
40150;SDS011;25866;52.420;10.640;2022-10-16T00:54:27;4.13;;;1.10;;
40150;SDS011;25866;52.420;10.640;2022-10-16T00:56:54;3.22;;;0.98;;
40150;SDS011;25866;52.420;10.640;2022-10-16T01:01:54;1.00;;;0.90;;
40150;SDS011;25866;52.420;10.640;2022-10-16T01:04:21;3.80;;;0.93;;
40150;SDS011;25866;52.420;10.640;2022-10-16T01:10:26;1.55;;;0.95;;
40150;SDS011;25866;52.420;10.640;2022-10-16T01:15:13;1.35;;;0.93;;
40150;SDS011;25866;52.420;10.640;2022-10-16T01:20:32;1.30;;;0.88;;
40150;SDS011;25866;52.420;10.640;2022-10-16T01:31:48;2.65;;;1.00;;
40150;SDS011;25866;52.420;10.640;2022-10-16T01:34:41;1.90;;;1.00;;
40150;SDS011;25866;52.420;10.640;2022-10-16T01:37:38;1.30;;;0.90;;
40150;SDS011;25866;52.420;10.640;2022-10-16T01:40:11;4.65;;;1.13;;
40150;SDS011;25866;52.420;10.640;2022-10-16T01:42:41;4.70;;;1.10;;
40150;SDS011;25866;52.420;10.640;2022-10-16T01:45:10;1.73;;;1.10;;
40150;SDS011;25866;52.420;10.640;2022-10-16T01:47:38;2.83;;;1.10;;
40150;SDS011;25866;52.420;10.640;2022-10-16T01:50:06;2.72;;;1.08;;
40150;SDS011;25866;52.420;10.640;2022-10-16T01:52:37;1.95;;;0.80;;
40150;SDS011;25866;52.420;10.640;2022-10-16T01:55:07;4.75;;;1.55;;
40150;SDS011;25866;52.420;10.640;2022-10-16T01:57:38;3.15;;;0.90;;
40150;SDS011;25866;52.420;10.640;2022-10-16T02:00:09;2.38;;;1.00;;
40150;SDS011;25866;52.420;10.640;2022-10-16T02:02:38;2.60;;;0.95;;
40150;SDS011;25866;52.420;10.640;2022-10-16T02:05:19;1.38;;;1.05;;
40150;SDS011;25866;52.420;10.640;2022-10-16T02:08:07;4.43;;;1.05;;
40150;SDS011;25866;52.420;10.640;2022-10-16T02:10:34;2.88;;;1.30;;
40150;SDS011;25866;52.420;10.640;2022-10-16T02:13:23;4.93;;;1.17;;
40150;SDS011;25866;52.420;10.640;2022-10-16T02:15:51;1.83;;;1.20;;
40150;SDS011;25866;52.420;10.640;2022-10-16T02:18:17;3.42;;;1.40;;
40150;SDS011;25866;52.420;10.640;2022-10-16T02:23:51;9.82;;;1.42;;
40150;SDS011;25866;52.420;10.640;2022-10-16T02:26:26;3.55;;;1.48;;
40150;SDS011;25866;52.420;10.640;2022-10-16T02:29:10;6.00;;;1.33;;
40150;SDS011;25866;52.420;10.640;2022-10-16T02:31:41;3.00;;;1.45;;
40150;SDS011;25866;52.420;10.640;2022-10-16T02:34:10;1.38;;;1.10;;
40150;SDS011;25866;52.420;10.640;2022-10-16T02:36:39;1.95;;;1.38;;
40150;SDS011;25866;52.420;10.640;2022-10-16T02:39:06;1.20;;;1.10;;
40150;SDS011;25866;52.420;10.640;2022-10-16T02:41:33;2.60;;;1.00;;
40150;SDS011;25866;52.420;10.640;2022-10-16T02:43:59;3.00;;;1.40;;
40150;SDS011;25866;52.420;10.640;2022-10-16T02:46:24;2.17;;;1.30;;
40150;SDS011;25866;52.420;10.640;2022-10-16T02:48:50;4.43;;;1.40;;
40150;SDS011;25866;52.420;10.640;2022-10-16T02:51:16;2.65;;;1.30;;
40150;SDS011;25866;52.420;10.640;2022-10-16T02:53:41;2.40;;;1.40;;
40150;SDS011;25866;52.420;10.640;2022-10-16T02:56:07;3.97;;;1.60;;
40150;SDS011;25866;52.420;10.640;2022-10-16T02:58:33;3.83;;;1.42;;
40150;SDS011;25866;52.420;10.640;2022-10-16T03:00:59;2.08;;;1.00;;
40150;SDS011;25866;52.420;10.640;2022-10-16T03:03:24;2.40;;;1.40;;
40150;SDS011;25866;52.420;10.640;2022-10-16T03:05:50;2.95;;;1.40;;
40150;SDS011;25866;52.420;10.640;2022-10-16T03:08:16;1.35;;;1.10;;
40150;SDS011;25866;52.420;10.640;2022-10-16T03:10:42;4.13;;;1.40;;
40150;SDS011;25866;52.420;10.640;2022-10-16T03:13:08;3.40;;;1.75;;
40150;SDS011;25866;52.420;10.640;2022-10-16T03:15:34;3.45;;;1.45;;
40150;SDS011;25866;52.420;10.640;2022-10-16T03:17:59;1.65;;;1.30;;
40150;SDS011;25866;52.420;10.640;2022-10-16T03:20:25;2.75;;;1.73;;
40150;SDS011;25866;52.420;10.640;2022-10-16T03:22:51;4.18;;;1.40;;
40150;SDS011;25866;52.420;10.640;2022-10-16T03:25:17;2.90;;;1.33;;
40150;SDS011;25866;52.420;10.640;2022-10-16T03:27:43;2.25;;;1.15;;
40150;SDS011;25866;52.420;10.640;2022-10-16T03:30:09;2.67;;;1.13;;
40150;SDS011;25866;52.420;10.640;2022-10-16T03:32:35;2.05;;;1.42;;
40150;SDS011;25866;52.420;10.640;2022-10-16T03:35:01;5.28;;;1.50;;
40150;SDS011;25866;52.420;10.640;2022-10-16T03:37:27;2.28;;;1.40;;
40150;SDS011;25866;52.420;10.640;2022-10-16T03:39:53;6.13;;;1.20;;
40150;SDS011;25866;52.420;10.640;2022-10-16T03:42:18;1.88;;;1.40;;
40150;SDS011;25866;52.420;10.640;2022-10-16T03:44:44;2.63;;;1.60;;
40150;SDS011;25866;52.420;10.640;2022-10-16T03:47:10;2.22;;;1.42;;
40150;SDS011;25866;52.420;10.640;2022-10-16T03:49:35;4.32;;;1.40;;
40150;SDS011;25866;52.420;10.640;2022-10-16T03:52:01;1.98;;;1.23;;
40150;SDS011;25866;52.420;10.640;2022-10-16T03:54:28;3.50;;;1.38;;
40150;SDS011;25866;52.420;10.640;2022-10-16T03:56:53;4.43;;;1.42;;
40150;SDS011;25866;52.420;10.640;2022-10-16T03:59:19;1.77;;;1.38;;
40150;SDS011;25866;52.420;10.640;2022-10-16T04:01:45;2.05;;;1.42;;
40150;SDS011;25866;52.420;10.640;2022-10-16T04:04:12;4.65;;;1.50;;
40150;SDS011;25866;52.420;10.640;2022-10-16T04:06:37;7.75;;;1.83;;
40150;SDS011;25866;52.420;10.640;2022-10-16T04:09:03;2.97;;;1.48;;
40150;SDS011;25866;52.420;10.640;2022-10-16T04:11:29;4.38;;;1.10;;
40150;SDS011;25866;52.420;10.640;2022-10-16T04:13:55;2.90;;;1.45;;
40150;SDS011;25866;52.420;10.640;2022-10-16T04:16:21;4.32;;;1.40;;
40150;SDS011;25866;52.420;10.640;2022-10-16T04:18:46;3.50;;;1.63;;
40150;SDS011;25866;52.420;10.640;2022-10-16T04:21:12;6.35;;;1.42;;
40150;SDS011;25866;52.420;10.640;2022-10-16T04:23:38;1.73;;;1.23;;
40150;SDS011;25866;52.420;10.640;2022-10-16T04:26:03;2.38;;;1.33;;
40150;SDS011;25866;52.420;10.640;2022-10-16T04:28:29;2.15;;;1.20;;
40150;SDS011;25866;52.420;10.640;2022-10-16T04:30:55;2.33;;;1.52;;
40150;SDS011;25866;52.420;10.640;2022-10-16T04:33:21;1.80;;;1.20;;
40150;SDS011;25866;52.420;10.640;2022-10-16T04:35:47;3.53;;;1.42;;
40150;SDS011;25866;52.420;10.640;2022-10-16T04:38:12;3.55;;;1.50;;
40150;SDS011;25866;52.420;10.640;2022-10-16T04:40:38;3.33;;;1.27;;
40150;SDS011;25866;52.420;10.640;2022-10-16T04:43:04;1.30;;;1.20;;
40150;SDS011;25866;52.420;10.640;2022-10-16T04:45:31;4.25;;;1.48;;
40150;SDS011;25866;52.420;10.640;2022-10-16T04:47:57;3.40;;;1.40;;
40150;SDS011;25866;52.420;10.640;2022-10-16T04:50:23;3.15;;;1.75;;
40150;SDS011;25866;52.420;10.640;2022-10-16T04:52:49;3.55;;;1.50;;
40150;SDS011;25866;52.420;10.640;2022-10-16T04:55:15;3.78;;;1.45;;
40150;SDS011;25866;52.420;10.640;2022-10-16T04:57:40;6.03;;;1.50;;
40150;SDS011;25866;52.420;10.640;2022-10-16T05:00:06;3.78;;;1.85;;
40150;SDS011;25866;52.420;10.640;2022-10-16T05:02:33;2.53;;;1.60;;
40150;SDS011;25866;52.420;10.640;2022-10-16T05:04:59;2.38;;;1.60;;
40150;SDS011;25866;52.420;10.640;2022-10-16T05:07:25;2.53;;;1.50;;
40150;SDS011;25866;52.420;10.640;2022-10-16T05:09:51;2.03;;;1.40;;
40150;SDS011;25866;52.420;10.640;2022-10-16T05:12:17;5.07;;;2.30;;
40150;SDS011;25866;52.420;10.640;2022-10-16T05:14:43;2.05;;;1.73;;
40150;SDS011;25866;52.420;10.640;2022-10-16T05:17:09;1.75;;;1.45;;
40150;SDS011;25866;52.420;10.640;2022-10-16T05:19:34;5.22;;;2.10;;
40150;SDS011;25866;52.420;10.640;2022-10-16T05:22:00;2.40;;;1.38;;
40150;SDS011;25866;52.420;10.640;2022-10-16T05:24:26;4.13;;;1.73;;
40150;SDS011;25866;52.420;10.640;2022-10-16T05:26:52;2.42;;;1.73;;
40150;SDS011;25866;52.420;10.640;2022-10-16T05:29:18;2.15;;;1.80;;
40150;SDS011;25866;52.420;10.640;2022-10-16T05:31:44;3.03;;;1.88;;
40150;SDS011;25866;52.420;10.640;2022-10-16T05:34:09;3.78;;;2.00;;
40150;SDS011;25866;52.420;10.640;2022-10-16T05:36:35;8.80;;;2.10;;
40150;SDS011;25866;52.420;10.640;2022-10-16T05:39:01;3.28;;;2.05;;
40150;SDS011;25866;52.420;10.640;2022-10-16T05:41:27;4.38;;;2.08;;
40150;SDS011;25866;52.420;10.640;2022-10-16T05:43:53;2.70;;;1.80;;
40150;SDS011;25866;52.420;10.640;2022-10-16T05:46:19;2.00;;;1.80;;
40150;SDS011;25866;52.420;10.640;2022-10-16T05:48:45;8.30;;;1.80;;
40150;SDS011;25866;52.420;10.640;2022-10-16T05:51:12;3.03;;;1.58;;
40150;SDS011;25866;52.420;10.640;2022-10-16T05:53:39;2.35;;;1.45;;
40150;SDS011;25866;52.420;10.640;2022-10-16T05:56:06;3.58;;;1.75;;
40150;SDS011;25866;52.420;10.640;2022-10-16T05:58:34;3.03;;;1.70;;
40150;SDS011;25866;52.420;10.640;2022-10-16T06:01:02;3.47;;;1.60;;
40150;SDS011;25866;52.420;10.640;2022-10-16T06:03:34;2.65;;;1.55;;
40150;SDS011;25866;52.420;10.640;2022-10-16T06:06:06;3.38;;;1.80;;
40150;SDS011;25866;52.420;10.640;2022-10-16T06:08:36;3.83;;;1.60;;
40150;SDS011;25866;52.420;10.640;2022-10-16T06:11:03;2.00;;;1.75;;
40150;SDS011;25866;52.420;10.640;2022-10-16T06:13:30;2.22;;;1.70;;
40150;SDS011;25866;52.420;10.640;2022-10-16T06:15:57;2.22;;;1.70;;
40150;SDS011;25866;52.420;10.640;2022-10-16T06:18:25;1.65;;;1.27;;
40150;SDS011;25866;52.420;10.640;2022-10-16T06:20:51;2.63;;;1.58;;
40150;SDS011;25866;52.420;10.640;2022-10-16T06:23:17;4.57;;;2.05;;
40150;SDS011;25866;52.420;10.640;2022-10-16T06:25:43;4.47;;;1.52;;
40150;SDS011;25866;52.420;10.640;2022-10-16T06:28:09;2.30;;;1.80;;
40150;SDS011;25866;52.420;10.640;2022-10-16T06:30:34;2.10;;;1.40;;
40150;SDS011;25866;52.420;10.640;2022-10-16T06:33:00;2.38;;;1.60;;
40150;SDS011;25866;52.420;10.640;2022-10-16T06:35:26;5.45;;;1.70;;
40150;SDS011;25866;52.420;10.640;2022-10-16T06:37:55;1.80;;;1.70;;
40150;SDS011;25866;52.420;10.640;2022-10-16T06:40:20;2.67;;;1.52;;
40150;SDS011;25866;52.420;10.640;2022-10-16T06:42:46;2.55;;;1.63;;
40150;SDS011;25866;52.420;10.640;2022-10-16T06:45:12;2.00;;;1.80;;
40150;SDS011;25866;52.420;10.640;2022-10-16T06:47:37;3.00;;;1.65;;
40150;SDS011;25866;52.420;10.640;2022-10-16T06:50:03;6.90;;;1.98;;
40150;SDS011;25866;52.420;10.640;2022-10-16T06:52:31;5.00;;;2.15;;
40150;SDS011;25866;52.420;10.640;2022-10-16T06:54:58;6.25;;;1.90;;
40150;SDS011;25866;52.420;10.640;2022-10-16T06:57:24;2.33;;;1.60;;
40150;SDS011;25866;52.420;10.640;2022-10-16T06:59:50;5.13;;;1.58;;
40150;SDS011;25866;52.420;10.640;2022-10-16T07:02:15;3.78;;;1.63;;
40150;SDS011;25866;52.420;10.640;2022-10-16T07:04:41;3.90;;;1.70;;
40150;SDS011;25866;52.420;10.640;2022-10-16T07:07:07;2.00;;;1.70;;
40150;SDS011;25866;52.420;10.640;2022-10-16T07:09:32;3.58;;;1.63;;
40150;SDS011;25866;52.420;10.640;2022-10-16T07:11:58;2.15;;;1.70;;
40150;SDS011;25866;52.420;10.640;2022-10-16T07:14:24;1.90;;;1.73;;
40150;SDS011;25866;52.420;10.640;2022-10-16T07:16:50;4.53;;;1.73;;
40150;SDS011;25866;52.420;10.640;2022-10-16T07:19:15;1.92;;;1.63;;
40150;SDS011;25866;52.420;10.640;2022-10-16T07:21:42;2.30;;;1.65;;
40150;SDS011;25866;52.420;10.640;2022-10-16T07:24:13;1.83;;;1.67;;
40150;SDS011;25866;52.420;10.640;2022-10-16T07:26:41;5.68;;;1.75;;
40150;SDS011;25866;52.420;10.640;2022-10-16T07:29:15;2.88;;;1.48;;
40150;SDS011;25866;52.420;10.640;2022-10-16T07:31:43;1.77;;;1.50;;
40150;SDS011;25866;52.420;10.640;2022-10-16T07:34:10;6.00;;;1.67;;
40150;SDS011;25866;52.420;10.640;2022-10-16T07:36:38;1.85;;;1.42;;
40150;SDS011;25866;52.420;10.640;2022-10-16T07:39:03;5.07;;;1.55;;
40150;SDS011;25866;52.420;10.640;2022-10-16T07:41:29;3.10;;;1.40;;
40150;SDS011;25866;52.420;10.640;2022-10-16T07:43:58;1.73;;;1.30;;
40150;SDS011;25866;52.420;10.640;2022-10-16T07:46:27;3.63;;;1.40;;
40150;SDS011;25866;52.420;10.640;2022-10-16T07:48:53;6.05;;;1.63;;
40150;SDS011;25866;52.420;10.640;2022-10-16T07:51:19;1.40;;;1.00;;
40150;SDS011;25866;52.420;10.640;2022-10-16T07:53:46;4.35;;;1.38;;
40150;SDS011;25866;52.420;10.640;2022-10-16T07:56:13;2.15;;;1.38;;
40150;SDS011;25866;52.420;10.640;2022-10-16T07:58:40;1.88;;;1.20;;
40150;SDS011;25866;52.420;10.640;2022-10-16T08:01:07;1.13;;;0.80;;
40150;SDS011;25866;52.420;10.640;2022-10-16T08:03:35;5.25;;;1.20;;
40150;SDS011;25866;52.420;10.640;2022-10-16T08:06:01;1.27;;;0.90;;
40150;SDS011;25866;52.420;10.640;2022-10-16T08:08:27;6.47;;;1.00;;
40150;SDS011;25866;52.420;10.640;2022-10-16T08:10:53;0.88;;;0.68;;
40150;SDS011;25866;52.420;10.640;2022-10-16T08:13:19;2.20;;;1.00;;
40150;SDS011;25866;52.420;10.640;2022-10-16T08:15:45;6.32;;;1.00;;
40150;SDS011;25866;52.420;10.640;2022-10-16T08:18:12;1.33;;;0.70;;
40150;SDS011;25866;52.420;10.640;2022-10-16T08:20:39;1.05;;;0.55;;
40150;SDS011;25866;52.420;10.640;2022-10-16T08:23:05;0.85;;;0.63;;
40150;SDS011;25866;52.420;10.640;2022-10-16T08:25:33;3.42;;;0.80;;
40150;SDS011;25866;52.420;10.640;2022-10-16T08:28:03;4.07;;;0.70;;
40150;SDS011;25866;52.420;10.640;2022-10-16T08:30:32;1.35;;;0.60;;
40150;SDS011;25866;52.420;10.640;2022-10-16T08:32:59;3.42;;;0.85;;
40150;SDS011;25866;52.420;10.640;2022-10-16T08:35:26;1.35;;;0.80;;
40150;SDS011;25866;52.420;10.640;2022-10-16T08:37:52;3.33;;;0.80;;
40150;SDS011;25866;52.420;10.640;2022-10-16T08:40:22;0.93;;;0.60;;
40150;SDS011;25866;52.420;10.640;2022-10-16T08:42:53;3.42;;;1.02;;
40150;SDS011;25866;52.420;10.640;2022-10-16T08:48:27;1.73;;;0.70;;
40150;SDS011;25866;52.420;10.640;2022-10-16T08:50:58;1.95;;;0.60;;
40150;SDS011;25866;52.420;10.640;2022-10-16T08:53:28;0.80;;;0.60;;
40150;SDS011;25866;52.420;10.640;2022-10-16T08:55:58;0.93;;;0.57;;
40150;SDS011;25866;52.420;10.640;2022-10-16T08:58:28;2.60;;;0.70;;
40150;SDS011;25866;52.420;10.640;2022-10-16T09:00:56;2.78;;;0.80;;
40150;SDS011;25866;52.420;10.640;2022-10-16T09:23:39;2.55;;;0.70;;
40150;SDS011;25866;52.420;10.640;2022-10-16T09:26:05;0.75;;;0.50;;
40150;SDS011;25866;52.420;10.640;2022-10-16T09:28:36;1.30;;;0.50;;
40150;SDS011;25866;52.420;10.640;2022-10-16T09:31:02;0.80;;;0.40;;
40150;SDS011;25866;52.420;10.640;2022-10-16T09:33:35;1.00;;;0.50;;
40150;SDS011;25866;52.420;10.640;2022-10-16T09:36:04;4.47;;;0.57;;
40150;SDS011;25866;52.420;10.640;2022-10-16T09:38:35;1.02;;;0.60;;
40150;SDS011;25866;52.420;10.640;2022-10-16T09:41:15;5.05;;;0.60;;
40150;SDS011;25866;52.420;10.640;2022-10-16T09:46:27;0.50;;;0.50;;
40150;SDS011;25866;52.420;10.640;2022-10-16T09:52:09;0.68;;;0.57;;
40150;SDS011;25866;52.420;10.640;2022-10-16T09:54:37;1.10;;;0.50;;
40150;SDS011;25866;52.420;10.640;2022-10-16T09:57:17;3.15;;;0.60;;
40150;SDS011;25866;52.420;10.640;2022-10-16T09:59:50;2.38;;;0.38;;
40150;SDS011;25866;52.420;10.640;2022-10-16T10:02:28;0.75;;;0.50;;
40150;SDS011;25866;52.420;10.640;2022-10-16T10:04:56;1.92;;;0.52;;
40150;SDS011;25866;52.420;10.640;2022-10-16T10:07:28;0.40;;;0.38;;
40150;SDS011;25866;52.420;10.640;2022-10-16T10:09:59;1.65;;;0.63;;
40150;SDS011;25866;52.420;10.640;2022-10-16T10:12:29;1.55;;;0.60;;
40150;SDS011;25866;52.420;10.640;2022-10-16T10:15:06;1.02;;;0.47;;
40150;SDS011;25866;52.420;10.640;2022-10-16T10:17:45;1.00;;;0.50;;
40150;SDS011;25866;52.420;10.640;2022-10-16T10:20:28;0.85;;;0.47;;
40150;SDS011;25866;52.420;10.640;2022-10-16T10:22:56;1.60;;;0.50;;
40150;SDS011;25866;52.420;10.640;2022-10-16T10:25:46;1.90;;;0.38;;
40150;SDS011;25866;52.420;10.640;2022-10-16T10:31:22;1.20;;;0.50;;
40150;SDS011;25866;52.420;10.640;2022-10-16T10:36:59;0.90;;;0.43;;
40150;SDS011;25866;52.420;10.640;2022-10-16T10:39:49;6.13;;;0.60;;
40150;SDS011;25866;52.420;10.640;2022-10-16T10:45:27;2.78;;;0.47;;
40150;SDS011;25866;52.420;10.640;2022-10-16T11:01:55;1.60;;;0.40;;
40150;SDS011;25866;52.420;10.640;2022-10-16T11:07:10;3.20;;;0.40;;
40150;SDS011;25866;52.420;10.640;2022-10-16T11:09:49;0.80;;;0.50;;
40150;SDS011;25866;52.420;10.640;2022-10-16T11:12:23;0.63;;;0.50;;
40150;SDS011;25866;52.420;10.640;2022-10-16T11:15:02;1.70;;;0.43;;
40150;SDS011;25866;52.420;10.640;2022-10-16T11:21:04;2.03;;;0.50;;
40150;SDS011;25866;52.420;10.640;2022-10-16T11:23:31;2.15;;;0.40;;
40150;SDS011;25866;52.420;10.640;2022-10-16T11:26:18;4.18;;;0.32;;
40150;SDS011;25866;52.420;10.640;2022-10-16T11:28:48;2.15;;;0.65;;
40150;SDS011;25866;52.420;10.640;2022-10-16T11:31:22;1.77;;;0.43;;
40150;SDS011;25866;52.420;10.640;2022-10-16T11:33:56;5.32;;;0.77;;
40150;SDS011;25866;52.420;10.640;2022-10-16T11:36:39;3.38;;;0.55;;
40150;SDS011;25866;52.420;10.640;2022-10-16T11:39:21;4.72;;;0.50;;
40150;SDS011;25866;52.420;10.640;2022-10-16T11:41:55;6.32;;;0.70;;
40150;SDS011;25866;52.420;10.640;2022-10-16T11:49:40;2.45;;;0.43;;
40150;SDS011;25866;52.420;10.640;2022-10-16T11:57:42;2.25;;;0.47;;
40150;SDS011;25866;52.420;10.640;2022-10-16T12:03:08;1.10;;;0.50;;
40150;SDS011;25866;52.420;10.640;2022-10-16T12:05:55;2.85;;;0.55;;
40150;SDS011;25866;52.420;10.640;2022-10-16T12:08:38;3.90;;;0.40;;
40150;SDS011;25866;52.420;10.640;2022-10-16T12:11:22;1.45;;;0.40;;
40150;SDS011;25866;52.420;10.640;2022-10-16T12:13:51;1.73;;;0.60;;
40150;SDS011;25866;52.420;10.640;2022-10-16T12:16:59;4.85;;;0.50;;
40150;SDS011;25866;52.420;10.640;2022-10-16T12:19:25;2.05;;;0.70;;
40150;SDS011;25866;52.420;10.640;2022-10-16T12:21:55;2.70;;;0.77;;
40150;SDS011;25866;52.420;10.640;2022-10-16T12:24:38;3.95;;;0.60;;
40150;SDS011;25866;52.420;10.640;2022-10-16T12:27:27;2.72;;;0.60;;
40150;SDS011;25866;52.420;10.640;2022-10-16T12:29:59;2.15;;;0.50;;
40150;SDS011;25866;52.420;10.640;2022-10-16T12:32:37;1.15;;;0.40;;
40150;SDS011;25866;52.420;10.640;2022-10-16T12:35:04;3.00;;;0.50;;
40150;SDS011;25866;52.420;10.640;2022-10-16T12:37:42;2.05;;;0.52;;
40150;SDS011;25866;52.420;10.640;2022-10-16T12:43:24;4.20;;;0.45;;
40150;SDS011;25866;52.420;10.640;2022-10-16T12:45:59;1.33;;;0.52;;
40150;SDS011;25866;52.420;10.640;2022-10-16T12:48:26;1.38;;;0.45;;
40150;SDS011;25866;52.420;10.640;2022-10-16T12:50:53;2.78;;;0.40;;
40150;SDS011;25866;52.420;10.640;2022-10-16T12:53:25;5.28;;;0.75;;
40150;SDS011;25866;52.420;10.640;2022-10-16T12:55:54;2.70;;;0.45;;
40150;SDS011;25866;52.420;10.640;2022-10-16T13:01:52;0.55;;;0.40;;
40150;SDS011;25866;52.420;10.640;2022-10-16T13:06:54;1.75;;;0.50;;
40150;SDS011;25866;52.420;10.640;2022-10-16T13:11:51;1.60;;;0.30;;
40150;SDS011;25866;52.420;10.640;2022-10-16T13:28:21;0.98;;;0.57;;
40150;SDS011;25866;52.420;10.640;2022-10-16T13:30:54;2.60;;;0.70;;
40150;SDS011;25866;52.420;10.640;2022-10-16T13:33:26;1.90;;;0.50;;
40150;SDS011;25866;52.420;10.640;2022-10-16T13:36:02;1.05;;;0.40;;
40150;SDS011;25866;52.420;10.640;2022-10-16T13:38:33;1.13;;;0.30;;
40150;SDS011;25866;52.420;10.640;2022-10-16T13:41:01;0.90;;;0.22;;
40150;SDS011;25866;52.420;10.640;2022-10-16T13:43:39;1.65;;;0.40;;
40150;SDS011;25866;52.420;10.640;2022-10-16T13:46:17;0.47;;;0.38;;
40150;SDS011;25866;52.420;10.640;2022-10-16T13:48:55;4.82;;;0.43;;
40150;SDS011;25866;52.420;10.640;2022-10-16T13:51:29;2.08;;;0.50;;
40150;SDS011;25866;52.420;10.640;2022-10-16T13:53:56;6.00;;;0.50;;
40150;SDS011;25866;52.420;10.640;2022-10-16T13:56:27;1.42;;;0.40;;
40150;SDS011;25866;52.420;10.640;2022-10-16T13:58:59;1.20;;;0.50;;
40150;SDS011;25866;52.420;10.640;2022-10-16T14:01:27;1.60;;;0.50;;
40150;SDS011;25866;52.420;10.640;2022-10-16T14:04:00;0.45;;;0.38;;
40150;SDS011;25866;52.420;10.640;2022-10-16T14:06:27;5.03;;;0.57;;
40150;SDS011;25866;52.420;10.640;2022-10-16T14:08:56;2.45;;;0.50;;
40150;SDS011;25866;52.420;10.640;2022-10-16T14:11:30;0.55;;;0.22;;
40150;SDS011;25866;52.420;10.640;2022-10-16T14:13:55;2.15;;;0.60;;
40150;SDS011;25866;52.420;10.640;2022-10-16T14:16:23;0.95;;;0.40;;
40150;SDS011;25866;52.420;10.640;2022-10-16T14:19:04;4.43;;;0.40;;
40150;SDS011;25866;52.420;10.640;2022-10-16T14:21:35;0.40;;;0.30;;
40150;SDS011;25866;52.420;10.640;2022-10-16T14:24:12;1.50;;;0.57;;
40150;SDS011;25866;52.420;10.640;2022-10-16T14:26:42;1.60;;;0.40;;
40150;SDS011;25866;52.420;10.640;2022-10-16T14:29:17;5.10;;;0.60;;
40150;SDS011;25866;52.420;10.640;2022-10-16T14:34:52;0.85;;;0.30;;
40150;SDS011;25866;52.420;10.640;2022-10-16T14:37:28;3.35;;;0.70;;
40150;SDS011;25866;52.420;10.640;2022-10-16T14:39:55;0.60;;;0.30;;
40150;SDS011;25866;52.420;10.640;2022-10-16T14:42:22;2.28;;;0.57;;
40150;SDS011;25866;52.420;10.640;2022-10-16T14:44:50;0.73;;;0.30;;
40150;SDS011;25866;52.420;10.640;2022-10-16T14:47:21;1.10;;;0.40;;
40150;SDS011;25866;52.420;10.640;2022-10-16T14:49:51;4.45;;;0.32;;
40150;SDS011;25866;52.420;10.640;2022-10-16T14:52:20;0.60;;;0.30;;
40150;SDS011;25866;52.420;10.640;2022-10-16T14:54:48;1.67;;;0.50;;
40150;SDS011;25866;52.420;10.640;2022-10-16T14:57:18;1.48;;;0.40;;
40150;SDS011;25866;52.420;10.640;2022-10-16T14:59:49;0.55;;;0.30;;
40150;SDS011;25866;52.420;10.640;2022-10-16T15:04:54;1.20;;;0.32;;
40150;SDS011;25866;52.420;10.640;2022-10-16T15:07:20;1.58;;;0.30;;
40150;SDS011;25866;52.420;10.640;2022-10-16T15:09:47;1.27;;;0.40;;
40150;SDS011;25866;52.420;10.640;2022-10-16T15:12:12;0.57;;;0.30;;
40150;SDS011;25866;52.420;10.640;2022-10-16T15:14:38;1.38;;;0.28;;
40150;SDS011;25866;52.420;10.640;2022-10-16T15:17:04;0.68;;;0.30;;
40150;SDS011;25866;52.420;10.640;2022-10-16T15:19:30;0.47;;;0.30;;
40150;SDS011;25866;52.420;10.640;2022-10-16T15:21:56;0.43;;;0.30;;
40150;SDS011;25866;52.420;10.640;2022-10-16T15:24:21;1.38;;;0.40;;
40150;SDS011;25866;52.420;10.640;2022-10-16T15:26:47;1.20;;;0.43;;
40150;SDS011;25866;52.420;10.640;2022-10-16T15:29:14;1.25;;;0.43;;
40150;SDS011;25866;52.420;10.640;2022-10-16T15:31:41;1.58;;;0.47;;
40150;SDS011;25866;52.420;10.640;2022-10-16T15:34:12;0.50;;;0.40;;
40150;SDS011;25866;52.420;10.640;2022-10-16T15:36:38;3.67;;;0.60;;
40150;SDS011;25866;52.420;10.640;2022-10-16T15:39:05;2.17;;;0.30;;
40150;SDS011;25866;52.420;10.640;2022-10-16T15:41:37;1.60;;;0.50;;
40150;SDS011;25866;52.420;10.640;2022-10-16T15:44:03;3.72;;;0.40;;
40150;SDS011;25866;52.420;10.640;2022-10-16T15:46:29;0.57;;;0.40;;
40150;SDS011;25866;52.420;10.640;2022-10-16T15:48:57;0.95;;;0.50;;
40150;SDS011;25866;52.420;10.640;2022-10-16T15:51:23;1.20;;;0.50;;
40150;SDS011;25866;52.420;10.640;2022-10-16T15:53:50;1.13;;;0.40;;
40150;SDS011;25866;52.420;10.640;2022-10-16T15:56:16;1.90;;;0.40;;
40150;SDS011;25866;52.420;10.640;2022-10-16T15:58:42;1.27;;;0.45;;
40150;SDS011;25866;52.420;10.640;2022-10-16T16:01:09;2.33;;;0.77;;
40150;SDS011;25866;52.420;10.640;2022-10-16T16:03:36;0.95;;;0.40;;
40150;SDS011;25866;52.420;10.640;2022-10-16T16:06:05;3.00;;;0.60;;
40150;SDS011;25866;52.420;10.640;2022-10-16T16:08:33;2.33;;;0.47;;
40150;SDS011;25866;52.420;10.640;2022-10-16T16:11:12;1.15;;;0.47;;
40150;SDS011;25866;52.420;10.640;2022-10-16T16:13:39;1.05;;;0.45;;
40150;SDS011;25866;52.420;10.640;2022-10-16T16:16:06;3.53;;;0.50;;
40150;SDS011;25866;52.420;10.640;2022-10-16T16:18:32;1.88;;;0.50;;
40150;SDS011;25866;52.420;10.640;2022-10-16T16:20:58;0.50;;;0.30;;
40150;SDS011;25866;52.420;10.640;2022-10-16T16:23:24;4.43;;;0.50;;
40150;SDS011;25866;52.420;10.640;2022-10-16T16:28:39;1.70;;;0.47;;
40150;SDS011;25866;52.420;10.640;2022-10-16T16:31:06;0.70;;;0.32;;
40150;SDS011;25866;52.420;10.640;2022-10-16T16:33:32;0.63;;;0.45;;
40150;SDS011;25866;52.420;10.640;2022-10-16T16:35:58;2.03;;;0.47;;
40150;SDS011;25866;52.420;10.640;2022-10-16T16:38:25;4.00;;;0.90;;
40150;SDS011;25866;52.420;10.640;2022-10-16T16:40:52;1.75;;;0.52;;
40150;SDS011;25866;52.420;10.640;2022-10-16T16:43:18;1.60;;;0.50;;
40150;SDS011;25866;52.420;10.640;2022-10-16T16:45:47;2.05;;;0.60;;
40150;SDS011;25866;52.420;10.640;2022-10-16T16:48:12;2.20;;;0.43;;
40150;SDS011;25866;52.420;10.640;2022-10-16T16:50:38;1.77;;;0.50;;
40150;SDS011;25866;52.420;10.640;2022-10-16T16:53:04;0.98;;;0.50;;
40150;SDS011;25866;52.420;10.640;2022-10-16T16:55:29;1.40;;;0.50;;